createdAt,value
2022-10-25T00:01:15.049Z,1.40
2022-10-25T00:03:44.361Z,1.30
2022-10-25T00:06:12.435Z,1.30
2022-10-25T00:08:40.331Z,1.87
2022-10-25T00:11:08.717Z,1.97
2022-10-25T00:13:36.618Z,1.33
2022-10-25T00:16:04.759Z,1.50
2022-10-25T00:18:32.611Z,1.57
2022-10-25T00:21:07.032Z,1.80
2022-10-25T00:23:34.903Z,1.30
2022-10-25T00:26:03.147Z,1.33
2022-10-25T00:28:31.021Z,1.70
2022-10-25T00:31:02.232Z,1.70
2022-10-25T00:33:31.681Z,1.70
2022-10-25T00:36:06.985Z,1.50
2022-10-25T00:38:35.022Z,1.70
2022-10-25T00:41:03.015Z,1.60
2022-10-25T00:43:35.236Z,1.50
2022-10-25T00:46:03.338Z,1.60
2022-10-25T00:48:31.193Z,1.33
2022-10-25T00:50:59.049Z,2.03
2022-10-25T00:53:29.392Z,1.60
2022-10-25T00:55:59.955Z,1.57
2022-10-25T00:58:27.817Z,1.57
2022-10-25T01:00:56.619Z,1.63
2022-10-25T01:03:24.591Z,2.03
2022-10-25T01:05:52.688Z,1.50
2022-10-25T01:08:20.583Z,1.57
2022-10-25T01:10:49.961Z,1.50
2022-10-25T01:13:17.859Z,1.47
2022-10-25T01:15:50.616Z,1.60
2022-10-25T01:18:19.181Z,1.40
2022-10-25T01:21:25.165Z,1.70
2022-10-25T01:24:18.964Z,1.70
2022-10-25T01:26:57.362Z,1.67
2022-10-25T01:30:00.502Z,1.20
2022-10-25T01:32:31.131Z,1.70
2022-10-25T01:35:01.736Z,1.30
2022-10-25T01:37:31.653Z,1.60
2022-10-25T01:40:02.627Z,1.40
2022-10-25T01:42:33.443Z,1.63
2022-10-25T01:45:11.781Z,1.30
2022-10-25T01:47:42.904Z,1.70
2022-10-25T01:50:13.225Z,1.70
2022-10-25T01:52:41.156Z,1.50
2022-10-25T01:55:10.397Z,1.40
2022-10-25T01:57:46.041Z,1.43
2022-10-25T02:00:15.538Z,1.30
2022-10-25T02:02:57.644Z,1.80
2022-10-25T02:05:28.016Z,1.70
2022-10-25T02:08:01.412Z,1.50
2022-10-25T02:10:31.335Z,1.60
2022-10-25T02:13:02.858Z,1.43
2022-10-25T02:15:33.468Z,1.60
2022-10-25T02:18:04.192Z,1.53
2022-10-25T02:20:33.990Z,1.40
2022-10-25T02:23:02.901Z,1.40
2022-10-25T02:25:30.806Z,1.80
2022-10-25T02:27:58.701Z,1.57
2022-10-25T02:30:26.544Z,1.20
2022-10-25T02:32:54.409Z,2.20
2022-10-25T02:35:23.638Z,1.37
2022-10-25T02:37:51.538Z,1.40
2022-10-25T02:40:19.861Z,1.50
2022-10-25T02:42:47.756Z,1.47
2022-10-25T02:45:15.772Z,1.73
2022-10-25T02:47:43.706Z,1.30
2022-10-25T02:50:11.707Z,1.70
2022-10-25T02:52:40.963Z,1.63
2022-10-25T02:55:09.559Z,1.90
2022-10-25T02:57:38.000Z,1.53
2022-10-25T03:00:06.868Z,1.33
2022-10-25T03:02:34.805Z,1.60
2022-10-25T03:05:02.695Z,1.43
2022-10-25T03:07:30.570Z,1.87
2022-10-25T03:09:59.758Z,1.70
2022-10-25T03:12:27.680Z,1.83
2022-10-25T03:14:55.971Z,1.70
2022-10-25T03:17:23.803Z,1.50
2022-10-25T03:19:51.705Z,1.50
2022-10-25T03:22:19.574Z,1.40
2022-10-25T03:24:47.392Z,1.67
2022-10-25T03:27:17.846Z,1.80
2022-10-25T03:29:45.685Z,1.50
2022-10-25T03:32:13.542Z,1.53
2022-10-25T03:34:43.459Z,1.43
2022-10-25T03:37:11.291Z,1.50
2022-10-25T03:39:39.162Z,1.90
2022-10-25T03:42:07.225Z,1.93
2022-10-25T03:44:36.478Z,1.37
2022-10-25T03:47:04.363Z,1.70
2022-10-25T03:49:32.288Z,1.53
2022-10-25T03:52:02.753Z,1.57
2022-10-25T03:54:32.794Z,1.60
2022-10-25T03:57:00.733Z,1.43
2022-10-25T03:59:28.749Z,1.60
2022-10-25T04:01:58.054Z,2.10
2022-10-25T04:04:26.008Z,1.83
2022-10-25T04:06:53.877Z,1.50
2022-10-25T04:09:21.781Z,1.70
2022-10-25T04:11:49.648Z,1.40
2022-10-25T04:14:17.485Z,1.70
2022-10-25T04:16:45.371Z,1.30
2022-10-25T04:19:14.582Z,1.70
2022-10-25T04:21:42.448Z,1.70
2022-10-25T04:24:10.369Z,1.53
2022-10-25T04:26:38.494Z,1.67
2022-10-25T04:29:06.432Z,1.70
2022-10-25T04:31:34.308Z,1.63
2022-10-25T04:34:02.173Z,1.63
2022-10-25T04:36:31.634Z,1.63
2022-10-25T04:38:59.524Z,1.53
2022-10-25T04:41:27.424Z,1.80
2022-10-25T04:43:55.260Z,1.70
2022-10-25T04:46:23.161Z,1.93
2022-10-25T04:48:50.999Z,1.63
2022-10-25T04:51:18.830Z,1.77
2022-10-25T04:53:48.091Z,1.67
2022-10-25T04:56:16.013Z,1.63
2022-10-25T04:58:43.887Z,1.47
2022-10-25T05:01:13.205Z,1.60
2022-10-25T05:03:41.140Z,1.50
2022-10-25T05:06:09.844Z,1.67
2022-10-25T05:08:37.812Z,1.73
2022-10-25T05:11:07.226Z,1.80
2022-10-25T05:13:35.370Z,1.93
2022-10-25T05:16:03.314Z,1.80
2022-10-25T05:18:31.516Z,1.90
2022-10-25T05:21:00.715Z,1.97
2022-10-25T05:23:28.821Z,1.93
2022-10-25T05:26:03.606Z,1.60
2022-10-25T05:28:32.849Z,2.60
2022-10-25T05:31:04.173Z,1.90
2022-10-25T05:33:32.169Z,1.60
2022-10-25T05:36:00.365Z,1.70
2022-10-25T05:38:28.260Z,1.70
2022-10-25T05:40:56.345Z,2.00
2022-10-25T05:43:24.314Z,1.70
2022-10-25T05:45:53.684Z,1.57
2022-10-25T05:48:21.529Z,2.00
2022-10-25T05:50:53.438Z,1.87
2022-10-25T05:53:27.167Z,1.87
2022-10-25T05:55:55.016Z,2.10
2022-10-25T05:58:23.304Z,2.00
2022-10-25T06:00:51.195Z,1.97
2022-10-25T06:03:20.569Z,2.10
2022-10-25T06:05:48.459Z,2.10
2022-10-25T06:08:16.327Z,1.50
2022-10-25T06:10:44.312Z,1.90
2022-10-25T06:13:12.184Z,2.00
2022-10-25T06:15:40.036Z,2.00
2022-10-25T06:18:08.066Z,1.47
2022-10-25T06:20:37.323Z,1.90
2022-10-25T06:23:08.008Z,1.60
2022-10-25T06:25:38.422Z,1.60
2022-10-25T06:28:06.503Z,2.00
2022-10-25T06:30:34.418Z,1.90
2022-10-25T06:33:02.269Z,1.70
2022-10-25T06:35:30.472Z,2.33
2022-10-25T06:38:02.000Z,1.73
2022-10-25T06:40:29.860Z,1.60
2022-10-25T06:42:57.744Z,1.53
2022-10-25T06:45:25.749Z,1.67
2022-10-25T06:47:53.617Z,2.20
2022-10-25T06:50:21.494Z,1.80
2022-10-25T06:52:49.589Z,1.40
2022-10-25T06:55:18.976Z,1.77
2022-10-25T06:57:46.817Z,1.90
2022-10-25T07:00:15.290Z,1.50
2022-10-25T07:02:43.185Z,1.50
2022-10-25T07:05:11.161Z,1.77
2022-10-25T07:07:39.087Z,1.60
2022-10-25T07:10:07.350Z,1.60
2022-10-25T07:12:39.044Z,2.20
2022-10-25T07:15:08.026Z,1.70
2022-10-25T07:17:35.927Z,1.60
2022-10-25T07:20:03.805Z,2.10
2022-10-25T07:22:31.691Z,1.80
2022-10-25T07:24:59.616Z,2.10
2022-10-25T07:27:27.512Z,1.60
2022-10-25T07:29:56.778Z,1.80
2022-10-25T07:32:24.810Z,1.90
2022-10-25T07:34:52.922Z,2.00
2022-10-25T07:37:20.932Z,1.53
2022-10-25T07:39:49.201Z,1.80
2022-10-25T07:42:17.267Z,2.10
2022-10-25T07:47:15.774Z,1.53
2022-10-25T07:49:43.649Z,1.60
2022-10-25T07:52:11.732Z,1.40
2022-10-25T07:54:39.656Z,2.30
2022-10-25T07:57:07.642Z,2.00
2022-10-25T07:59:35.574Z,1.40
2022-10-25T08:02:03.530Z,2.00
2022-10-25T08:04:33.259Z,2.30
2022-10-25T08:07:01.835Z,1.80
2022-10-25T08:09:44.467Z,1.67
2022-10-25T08:12:12.340Z,1.83
2022-10-25T08:14:42.302Z,1.70
2022-10-25T08:17:11.325Z,1.90
2022-10-25T08:19:40.688Z,2.07
2022-10-25T08:22:08.708Z,2.30
2022-10-25T08:24:38.763Z,1.80
2022-10-25T08:27:06.832Z,2.10
2022-10-25T08:29:34.812Z,2.10
2022-10-25T08:32:02.706Z,1.60
2022-10-25T08:34:33.094Z,1.77
2022-10-25T08:37:02.976Z,1.90
2022-10-25T08:39:30.930Z,1.70
2022-10-25T08:41:59.617Z,2.07
2022-10-25T08:44:32.639Z,1.73
2022-10-25T08:47:01.827Z,1.77
2022-10-25T08:49:33.333Z,1.60
2022-10-25T08:52:02.730Z,1.40
2022-10-25T08:54:32.084Z,1.60
2022-10-25T08:57:15.854Z,1.50
2022-10-25T08:59:45.287Z,1.47
2022-10-25T09:02:18.871Z,1.57
2022-10-25T09:04:47.179Z,1.43
2022-10-25T09:07:32.229Z,1.80
2022-10-25T09:10:02.354Z,1.63
2022-10-25T09:12:32.576Z,1.57
2022-10-25T09:15:03.056Z,1.70
2022-10-25T09:17:34.421Z,1.70
2022-10-25T09:20:05.548Z,1.73
2022-10-25T09:22:39.104Z,1.40
2022-10-25T09:25:09.719Z,1.77
2022-10-25T09:27:38.720Z,1.90
2022-10-25T09:30:08.074Z,1.73
2022-10-25T09:32:39.577Z,1.47
2022-10-25T09:35:08.665Z,1.77
2022-10-25T09:37:42.202Z,1.83
2022-10-25T09:40:12.891Z,1.60
2022-10-25T09:42:42.476Z,1.57
2022-10-25T09:45:18.581Z,1.70
2022-10-25T09:47:49.679Z,1.70
2022-10-25T09:50:21.229Z,1.80
2022-10-25T09:52:57.024Z,2.23
2022-10-25T09:55:33.151Z,1.73
2022-10-25T09:58:01.438Z,2.10
2022-10-25T10:00:29.365Z,1.87
2022-10-25T10:02:57.483Z,1.90
2022-10-25T10:05:25.507Z,2.40
2022-10-25T10:07:54.783Z,2.20
2022-10-25T10:10:25.341Z,1.90
2022-10-25T10:12:54.853Z,1.90
2022-10-25T10:15:24.166Z,1.93
2022-10-25T10:18:22.426Z,2.07
2022-10-25T10:21:01.284Z,2.27
2022-10-25T10:23:32.005Z,2.30
2022-10-25T10:26:02.033Z,2.50
2022-10-25T10:28:29.904Z,2.70
2022-10-25T10:30:58.971Z,3.27
2022-10-25T10:33:27.701Z,3.03
2022-10-25T10:35:56.216Z,3.20
2022-10-25T10:38:25.833Z,2.00
2022-10-25T10:40:56.557Z,2.70
2022-10-25T10:43:25.704Z,2.17
2022-10-25T10:45:53.662Z,1.80
2022-10-25T10:48:22.191Z,2.00
2022-10-25T10:50:50.539Z,1.67
2022-10-25T10:53:21.619Z,1.60
2022-10-25T10:55:49.863Z,1.60
2022-10-25T10:58:20.161Z,1.63
2022-10-25T11:00:51.242Z,2.03
2022-10-25T11:03:59.327Z,1.70
2022-10-25T11:06:29.054Z,1.60
2022-10-25T11:09:13.314Z,1.20
2022-10-25T11:11:41.305Z,1.37
2022-10-25T11:14:12.293Z,1.73
2022-10-25T11:16:51.466Z,1.80
2022-10-25T11:19:41.437Z,2.50
2022-10-25T11:22:33.480Z,2.10
2022-10-25T11:25:11.182Z,1.77
2022-10-25T11:27:46.805Z,1.80
2022-10-25T11:30:17.128Z,1.40
2022-10-25T11:33:15.570Z,1.40
2022-10-25T11:35:50.417Z,1.40
2022-10-25T11:38:21.482Z,1.40
2022-10-25T11:40:56.209Z,1.47
2022-10-25T11:43:34.566Z,1.23
2022-10-25T11:46:05.070Z,1.30
2022-10-25T11:48:49.577Z,1.25
2022-10-25T11:51:22.364Z,1.30
2022-10-25T11:54:02.312Z,2.00
2022-10-25T11:56:33.872Z,1.33
2022-10-25T11:59:06.545Z,1.25
2022-10-25T12:01:42.253Z,1.13
2022-10-25T12:04:32.775Z,1.40
2022-10-25T12:07:05.624Z,1.05
2022-10-25T12:09:37.461Z,0.90
2022-10-25T12:12:06.863Z,0.80
2022-10-25T12:14:37.153Z,1.00
2022-10-25T12:17:08.271Z,0.88
2022-10-25T12:19:40.702Z,0.80
2022-10-25T12:22:09.398Z,1.02
2022-10-25T12:24:39.031Z,0.70
2022-10-25T12:27:06.953Z,0.95
2022-10-25T12:29:36.465Z,1.10
2022-10-25T12:32:07.335Z,0.80
2022-10-25T12:34:39.736Z,1.23
2022-10-25T12:37:11.356Z,1.02
2022-10-25T12:39:40.758Z,0.95
2022-10-25T12:42:10.733Z,0.73
2022-10-25T12:44:57.639Z,1.00
2022-10-25T12:47:33.577Z,0.90
2022-10-25T12:50:21.227Z,0.90
2022-10-25T12:53:05.729Z,1.00
2022-10-25T12:55:38.895Z,1.00
2022-10-25T12:58:21.130Z,1.00
2022-10-25T13:01:05.508Z,0.80
2022-10-25T13:04:10.270Z,0.93
2022-10-25T13:06:38.279Z,0.80
2022-10-25T13:09:07.911Z,1.07
2022-10-25T13:11:37.633Z,1.00
2022-10-25T13:14:05.615Z,0.83
2022-10-25T13:16:34.275Z,0.83
2022-10-25T13:22:39.461Z,0.70
2022-10-25T13:25:17.463Z,0.77
2022-10-25T13:28:20.763Z,1.00
2022-10-25T13:30:48.658Z,0.80
2022-10-25T13:33:33.691Z,1.00
2022-10-25T13:36:04.461Z,1.00
2022-10-25T13:38:38.854Z,1.20
2022-10-25T13:41:15.475Z,1.17
2022-10-25T13:43:58.543Z,1.30
2022-10-25T13:46:27.892Z,1.23
2022-10-25T13:48:55.822Z,1.50
2022-10-25T13:51:25.067Z,1.60
2022-10-25T13:53:53.244Z,1.83
2022-10-25T13:56:34.429Z,1.60
2022-10-25T13:59:02.538Z,1.90
2022-10-25T14:01:57.372Z,1.47
2022-10-25T14:04:38.618Z,1.57
2022-10-25T14:07:46.079Z,3.03
2022-10-25T14:10:26.287Z,3.53
2022-10-25T14:12:56.398Z,3.30
2022-10-25T14:15:39.719Z,2.00
2022-10-25T14:18:09.230Z,1.43
2022-10-25T14:20:37.141Z,1.23
2022-10-25T14:23:07.780Z,1.37
2022-10-25T14:25:36.918Z,1.57
2022-10-25T14:28:06.413Z,1.40
2022-10-25T14:30:35.902Z,1.43
2022-10-25T14:33:04.940Z,1.40
2022-10-25T14:35:34.202Z,1.97
2022-10-25T14:38:02.146Z,2.57
2022-10-25T14:40:31.919Z,2.50
2022-10-25T14:43:13.224Z,2.37
2022-10-25T14:45:41.099Z,1.60
2022-10-25T14:48:12.127Z,1.43
2022-10-25T14:50:40.001Z,1.60
2022-10-25T14:53:07.887Z,1.83
2022-10-25T14:55:37.171Z,1.23
2022-10-25T14:58:05.041Z,1.20
2022-10-25T15:00:32.965Z,1.40
2022-10-25T15:03:02.385Z,1.73
2022-10-25T15:05:30.240Z,1.30
2022-10-25T15:07:58.597Z,1.60
2022-10-25T15:10:38.095Z,1.87
2022-10-25T15:13:06.733Z,1.70
2022-10-25T15:15:36.698Z,1.50
2022-10-25T15:18:04.705Z,1.50
2022-10-25T15:20:33.078Z,1.80
2022-10-25T15:23:04.541Z,1.60
2022-10-25T15:25:34.070Z,1.67
2022-10-25T15:28:11.857Z,1.97
2022-10-25T15:30:40.543Z,1.80
2022-10-25T15:33:11.140Z,1.80
2022-10-25T15:35:46.036Z,2.10
2022-10-25T15:38:13.933Z,1.77
2022-10-25T15:40:43.074Z,1.70
2022-10-25T15:43:12.354Z,1.70
2022-10-25T15:45:40.252Z,1.60
2022-10-25T15:48:08.701Z,1.57
2022-10-25T15:50:36.613Z,1.40
2022-10-25T15:53:04.494Z,1.63
2022-10-25T15:55:33.196Z,1.63
2022-10-25T15:58:01.213Z,1.40
2022-10-25T16:00:31.025Z,1.50
2022-10-25T16:02:59.007Z,2.00
2022-10-25T16:05:28.196Z,1.60
2022-10-25T16:07:56.104Z,1.63
2022-10-25T16:10:25.172Z,1.80
2022-10-25T16:12:58.523Z,2.13
2022-10-25T16:15:27.581Z,2.10
2022-10-25T16:17:56.845Z,2.40
2022-10-25T16:20:25.714Z,2.20
2022-10-25T16:22:54.760Z,1.90
2022-10-25T16:25:22.863Z,1.80
2022-10-25T16:27:50.735Z,2.30
2022-10-25T16:30:19.630Z,2.07
2022-10-25T16:32:47.866Z,2.30
2022-10-25T16:35:18.841Z,3.03
2022-10-25T16:37:47.026Z,2.23
2022-10-25T16:40:15.740Z,2.43
2022-10-25T16:42:43.620Z,2.13
2022-10-25T16:45:15.081Z,2.00
2022-10-25T16:47:42.969Z,2.50
2022-10-25T16:50:10.864Z,1.97
2022-10-25T16:52:40.102Z,2.20
2022-10-25T16:55:08.862Z,3.03
2022-10-25T16:57:36.773Z,2.63
2022-10-25T17:00:05.269Z,2.43
2022-10-25T17:02:33.284Z,2.60
2022-10-25T17:05:01.552Z,2.37
2022-10-25T17:07:29.510Z,2.80
2022-10-25T17:09:58.781Z,2.87
2022-10-25T17:12:26.603Z,2.60
2022-10-25T17:14:54.448Z,2.60
2022-10-25T17:19:50.995Z,2.40
2022-10-25T17:22:20.519Z,2.57
2022-10-25T17:24:48.305Z,3.00
2022-10-25T17:27:17.557Z,2.40
2022-10-25T17:29:45.417Z,2.33
2022-10-25T17:32:13.362Z,2.73
2022-10-25T17:34:41.260Z,2.63
2022-10-25T17:37:09.120Z,3.23
2022-10-25T17:39:37.027Z,3.07
2022-10-25T17:42:05.174Z,3.00
2022-10-25T17:44:34.400Z,2.83
2022-10-25T17:47:03.222Z,3.00
2022-10-25T17:49:31.538Z,2.90
2022-10-25T17:51:59.391Z,3.30
2022-10-25T17:54:27.262Z,3.23
2022-10-25T17:56:58.608Z,3.17
2022-10-25T17:59:27.792Z,3.40
2022-10-25T18:01:57.160Z,3.00
2022-10-25T18:04:25.221Z,3.50
2022-10-25T18:06:53.092Z,3.17
2022-10-25T18:09:20.985Z,3.23
2022-10-25T18:11:48.873Z,3.50
2022-10-25T18:14:17.166Z,3.57
2022-10-25T18:16:45.094Z,3.63
2022-10-25T18:19:15.392Z,3.03
2022-10-25T18:21:43.366Z,3.13
2022-10-25T18:24:12.915Z,3.33
2022-10-25T18:26:40.781Z,3.43
2022-10-25T18:29:09.943Z,3.33
2022-10-25T18:31:37.860Z,3.20
2022-10-25T18:34:05.793Z,3.27
2022-10-25T18:36:35.142Z,2.97
2022-10-25T18:39:03.113Z,3.00
2022-10-25T18:41:32.135Z,3.10
2022-10-25T18:44:00.115Z,2.77
2022-10-25T18:46:29.417Z,2.80
2022-10-25T18:48:57.528Z,3.03
2022-10-25T18:51:26.591Z,2.33
2022-10-25T18:53:55.868Z,2.90
2022-10-25T18:56:23.794Z,2.80
2022-10-25T18:58:51.748Z,3.20
2022-10-25T19:01:22.227Z,3.20
2022-10-25T19:03:50.206Z,3.43
2022-10-25T19:06:18.294Z,3.10
2022-10-25T19:08:46.265Z,3.07
2022-10-25T19:11:16.270Z,3.70
2022-10-25T19:13:47.511Z,3.17
2022-10-25T19:16:18.401Z,3.50
2022-10-25T19:18:46.420Z,3.13
2022-10-25T19:21:16.722Z,3.00
2022-10-25T19:23:46.223Z,3.27
2022-10-25T19:26:16.519Z,3.73
2022-10-25T19:28:44.453Z,3.77
2022-10-25T19:31:13.229Z,3.57
2022-10-25T19:33:41.180Z,3.17
2022-10-25T19:36:09.984Z,3.10
2022-10-25T19:38:37.856Z,3.73
2022-10-25T19:41:06.637Z,3.40
2022-10-25T19:43:36.192Z,4.40
2022-10-25T19:46:05.693Z,4.00
2022-10-25T19:48:34.185Z,6.47
2022-10-25T19:51:05.266Z,3.00
2022-10-25T19:53:33.220Z,3.30
2022-10-25T19:56:01.142Z,3.23
2022-10-25T19:58:29.165Z,3.17
2022-10-25T20:01:06.785Z,3.03
2022-10-25T20:03:35.560Z,3.47
2022-10-25T20:06:04.646Z,3.00
2022-10-25T20:08:33.250Z,3.17
2022-10-25T20:11:01.248Z,2.77
2022-10-25T20:13:29.216Z,2.47
2022-10-25T20:15:57.094Z,2.50
2022-10-25T20:18:28.957Z,3.20
2022-10-25T20:20:58.533Z,2.40
2022-10-25T20:23:26.420Z,3.23
2022-10-25T20:25:54.548Z,2.40
2022-10-25T20:28:22.440Z,2.87
2022-10-25T20:30:50.321Z,2.40
2022-10-25T20:33:18.260Z,2.60
2022-10-25T20:35:47.544Z,2.70
2022-10-25T20:38:16.689Z,2.77
2022-10-25T20:40:45.273Z,2.53
2022-10-25T20:43:13.180Z,2.40
2022-10-25T20:45:43.974Z,2.33
2022-10-25T20:48:11.872Z,2.33
2022-10-25T20:50:43.108Z,2.70
2022-10-25T20:53:12.365Z,2.77
2022-10-25T20:55:40.247Z,3.10
2022-10-25T20:58:08.126Z,2.70
2022-10-25T21:00:35.962Z,2.40
2022-10-25T21:03:03.858Z,2.80
2022-10-25T21:05:31.768Z,3.00
2022-10-25T21:07:59.626Z,3.03
2022-10-25T21:10:29.032Z,2.93
2022-10-25T21:12:56.901Z,2.60
2022-10-25T21:15:24.764Z,2.90
2022-10-25T21:17:52.682Z,3.40
2022-10-25T21:20:20.541Z,2.97
2022-10-25T21:22:48.540Z,2.70
2022-10-25T21:25:16.689Z,3.20
2022-10-25T21:27:46.245Z,2.90
2022-10-25T21:30:14.500Z,3.00
2022-10-25T21:32:42.517Z,3.03
2022-10-25T21:35:10.512Z,3.03
2022-10-25T21:37:38.376Z,3.07
2022-10-25T21:40:06.980Z,2.87
2022-10-25T21:42:34.987Z,2.80
2022-10-25T21:45:04.889Z,2.80
2022-10-25T21:47:32.768Z,2.70
2022-10-25T21:50:00.672Z,2.80
2022-10-25T21:52:28.596Z,2.90
2022-10-25T21:54:56.451Z,2.57
2022-10-25T21:57:24.390Z,2.70
2022-10-25T21:59:52.256Z,2.50
2022-10-25T22:02:21.647Z,2.50
2022-10-25T22:04:49.592Z,2.30
2022-10-25T22:07:17.459Z,2.80
2022-10-25T22:09:45.351Z,2.70
2022-10-25T22:12:13.218Z,2.23
2022-10-25T22:14:41.097Z,2.50
2022-10-25T22:17:08.976Z,2.67
2022-10-25T22:19:38.244Z,2.67
2022-10-25T22:22:06.084Z,2.73
2022-10-25T22:24:33.976Z,2.50
2022-10-25T22:27:01.846Z,2.40
2022-10-25T22:29:29.725Z,2.40
2022-10-25T22:31:57.590Z,2.10
2022-10-25T22:34:25.545Z,2.10
2022-10-25T22:36:54.792Z,2.33
2022-10-25T22:39:22.681Z,2.03
2022-10-25T22:41:52.732Z,2.10
2022-10-25T22:46:53.773Z,2.23
2022-10-25T22:49:21.733Z,2.50
2022-10-25T22:51:49.674Z,2.37
2022-10-25T22:54:18.926Z,2.60
2022-10-25T22:56:46.792Z,2.20
2022-10-25T22:59:14.614Z,2.27
2022-10-25T23:01:42.511Z,2.20
2022-10-25T23:04:10.633Z,2.10
2022-10-25T23:06:39.472Z,1.53
2022-10-25T23:09:09.871Z,1.50
2022-10-25T23:11:39.826Z,1.50
2022-10-25T23:14:13.330Z,1.50
2022-10-25T23:16:44.525Z,1.60
2022-10-25T23:19:12.361Z,1.40
2022-10-25T23:21:40.257Z,1.13
2022-10-25T23:24:08.211Z,1.40
2022-10-25T23:26:36.484Z,1.20
2022-10-25T23:29:05.901Z,1.00
2022-10-25T23:31:33.886Z,0.90
2022-10-25T23:34:01.913Z,0.90
2022-10-25T23:36:37.104Z,1.50
2022-10-25T23:39:05.449Z,1.27
2022-10-25T23:41:33.313Z,0.93
2022-10-25T23:44:01.274Z,0.87
2022-10-25T23:46:30.508Z,0.97
2022-10-25T23:48:58.811Z,1.03
2022-10-25T23:51:26.743Z,0.80
2022-10-25T23:53:54.605Z,0.90
2022-10-25T23:56:22.488Z,0.90
2022-10-25T23:58:53.721Z,0.90
